sensor_id;sensor_type;location;lat;lon;timestamp;temperature;humidity
28677;DHT22;15858;48.338;11.078;2022-10-31T00:01:18;10.60;99.90
28677;DHT22;15858;48.338;11.078;2022-10-31T00:03:45;10.50;99.90
28677;DHT22;15858;48.338;11.078;2022-10-31T00:06:12;10.50;99.90
28677;DHT22;15858;48.338;11.078;2022-10-31T00:08:38;10.50;99.90
28677;DHT22;15858;48.338;11.078;2022-10-31T00:11:09;10.50;99.90
28677;DHT22;15858;48.338;11.078;2022-10-31T00:13:35;10.40;99.90
28677;DHT22;15858;48.338;11.078;2022-10-31T00:16:02;10.40;99.90
28677;DHT22;15858;48.338;11.078;2022-10-31T00:18:29;10.40;99.90
28677;DHT22;15858;48.338;11.078;2022-10-31T00:21:00;10.40;99.90
28677;DHT22;15858;48.338;11.078;2022-10-31T00:23:27;10.40;99.90
28677;DHT22;15858;48.338;11.078;2022-10-31T00:25:54;10.40;99.90
28677;DHT22;15858;48.338;11.078;2022-10-31T00:28:20;10.40;99.90
28677;DHT22;15858;48.338;11.078;2022-10-31T00:30:47;10.30;99.90
28677;DHT22;15858;48.338;11.078;2022-10-31T00:33:14;10.30;99.90
28677;DHT22;15858;48.338;11.078;2022-10-31T00:35:40;10.30;99.90
28677;DHT22;15858;48.338;11.078;2022-10-31T00:38:07;10.30;99.90
28677;DHT22;15858;48.338;11.078;2022-10-31T00:40:33;10.20;99.90
28677;DHT22;15858;48.338;11.078;2022-10-31T00:43:00;10.20;99.90
28677;DHT22;15858;48.338;11.078;2022-10-31T00:45:27;10.20;99.90
28677;DHT22;15858;48.338;11.078;2022-10-31T00:47:54;10.10;99.90
28677;DHT22;15858;48.338;11.078;2022-10-31T00:50:21;10.20;99.90
28677;DHT22;15858;48.338;11.078;2022-10-31T00:52:47;10.10;99.90
28677;DHT22;15858;48.338;11.078;2022-10-31T00:55:14;10.10;99.90
28677;DHT22;15858;48.338;11.078;2022-10-31T00:57:40;10.10;99.90
28677;DHT22;15858;48.338;11.078;2022-10-31T01:00:08;10.10;99.90
28677;DHT22;15858;48.338;11.078;2022-10-31T01:02:34;10.10;99.90
28677;DHT22;15858;48.338;11.078;2022-10-31T01:05:01;10.10;99.90
28677;DHT22;15858;48.338;11.078;2022-10-31T01:07:28;10.10;99.90
28677;DHT22;15858;48.338;11.078;2022-10-31T01:09:55;10.10;99.90
28677;DHT22;15858;48.338;11.078;2022-10-31T01:12:21;10.10;99.90
28677;DHT22;15858;48.338;11.078;2022-10-31T01:14:48;10.10;99.90
28677;DHT22;15858;48.338;11.078;2022-10-31T01:17:14;10.00;99.90
28677;DHT22;15858;48.338;11.078;2022-10-31T01:19:41;10.00;99.90
28677;DHT22;15858;48.338;11.078;2022-10-31T01:22:08;10.00;99.90
28677;DHT22;15858;48.338;11.078;2022-10-31T01:24:34;10.00;99.90
28677;DHT22;15858;48.338;11.078;2022-10-31T01:27:01;10.00;99.90
28677;DHT22;15858;48.338;11.078;2022-10-31T01:29:28;10.00;99.90
28677;DHT22;15858;48.338;11.078;2022-10-31T01:31:55;10.00;99.90
28677;DHT22;15858;48.338;11.078;2022-10-31T01:34:21;10.00;99.90
28677;DHT22;15858;48.338;11.078;2022-10-31T01:36:48;10.00;99.90
28677;DHT22;15858;48.338;11.078;2022-10-31T01:39:15;10.10;99.90
28677;DHT22;15858;48.338;11.078;2022-10-31T01:41:44;10.10;99.90
28677;DHT22;15858;48.338;11.078;2022-10-31T01:46:54;10.10;99.90
28677;DHT22;15858;48.338;11.078;2022-10-31T01:51:57;10.10;99.90
28677;DHT22;15858;48.338;11.078;2022-10-31T01:54:30;10.10;99.90
28677;DHT22;15858;48.338;11.078;2022-10-31T01:56:59;10.10;99.90
28677;DHT22;15858;48.338;11.078;2022-10-31T01:59:30;10.00;99.90
28677;DHT22;15858;48.338;11.078;2022-10-31T02:01:57;10.00;99.90
28677;DHT22;15858;48.338;11.078;2022-10-31T02:04:25;9.90;99.90
28677;DHT22;15858;48.338;11.078;2022-10-31T02:06:58;9.80;99.90
28677;DHT22;15858;48.338;11.078;2022-10-31T02:09:25;9.80;99.90
28677;DHT22;15858;48.338;11.078;2022-10-31T02:11:55;9.80;99.90
28677;DHT22;15858;48.338;11.078;2022-10-31T02:14:28;9.80;99.90
28677;DHT22;15858;48.338;11.078;2022-10-31T02:16:56;9.70;99.90
28677;DHT22;15858;48.338;11.078;2022-10-31T02:25:36;9.80;99.90
28677;DHT22;15858;48.338;11.078;2022-10-31T02:28:30;9.70;99.90
28677;DHT22;15858;48.338;11.078;2022-10-31T02:33:57;9.70;99.90
28677;DHT22;15858;48.338;11.078;2022-10-31T02:36:56;9.70;99.90
28677;DHT22;15858;48.338;11.078;2022-10-31T02:39:43;9.60;99.90
28677;DHT22;15858;48.338;11.078;2022-10-31T02:42:22;9.60;99.90
28677;DHT22;15858;48.338;11.078;2022-10-31T02:45:06;9.60;99.90
28677;DHT22;15858;48.338;11.078;2022-10-31T02:47:37;9.60;99.90
28677;DHT22;15858;48.338;11.078;2022-10-31T02:50:08;9.50;99.90
28677;DHT22;15858;48.338;11.078;2022-10-31T02:52:36;9.50;99.90
28677;DHT22;15858;48.338;11.078;2022-10-31T02:57:37;9.50;99.90
28677;DHT22;15858;48.338;11.078;2022-10-31T03:00:08;9.50;99.90
28677;DHT22;15858;48.338;11.078;2022-10-31T03:02:46;9.40;99.90
28677;DHT22;15858;48.338;11.078;2022-10-31T03:10:47;9.40;99.90
28677;DHT22;15858;48.338;11.078;2022-10-31T03:13:27;9.40;99.90
28677;DHT22;15858;48.338;11.078;2022-10-31T03:18:51;9.30;99.90
28677;DHT22;15858;48.338;11.078;2022-10-31T03:21:25;9.30;99.90
28677;DHT22;15858;48.338;11.078;2022-10-31T03:23:53;9.20;99.90
28677;DHT22;15858;48.338;11.078;2022-10-31T03:26:21;9.20;99.90
28677;DHT22;15858;48.338;11.078;2022-10-31T03:28:54;9.20;99.90
28677;DHT22;15858;48.338;11.078;2022-10-31T03:31:24;9.10;99.90
28677;DHT22;15858;48.338;11.078;2022-10-31T03:33:53;9.20;99.90
28677;DHT22;15858;48.338;11.078;2022-10-31T03:36:20;9.20;99.90
28677;DHT22;15858;48.338;11.078;2022-10-31T03:38:48;9.20;99.90
28677;DHT22;15858;48.338;11.078;2022-10-31T03:41:20;9.20;99.90
28677;DHT22;15858;48.338;11.078;2022-10-31T03:44:07;9.20;99.90
28677;DHT22;15858;48.338;11.078;2022-10-31T03:46:35;9.10;99.90
28677;DHT22;15858;48.338;11.078;2022-10-31T03:49:02;9.10;99.90
28677;DHT22;15858;48.338;11.078;2022-10-31T03:51:36;9.10;99.90
28677;DHT22;15858;48.338;11.078;2022-10-31T03:56:49;9.10;99.90
28677;DHT22;15858;48.338;11.078;2022-10-31T03:59:37;9.00;99.90
28677;DHT22;15858;48.338;11.078;2022-10-31T04:02:11;9.10;99.90
28677;DHT22;15858;48.338;11.078;2022-10-31T04:04:40;9.00;99.90
28677;DHT22;15858;48.338;11.078;2022-10-31T04:07:07;9.00;99.90
28677;DHT22;15858;48.338;11.078;2022-10-31T04:09:38;9.00;99.90
28677;DHT22;15858;48.338;11.078;2022-10-31T04:12:07;9.00;99.90
28677;DHT22;15858;48.338;11.078;2022-10-31T04:14:37;8.90;99.90
28677;DHT22;15858;48.338;11.078;2022-10-31T04:17:07;8.90;99.90
28677;DHT22;15858;48.338;11.078;2022-10-31T04:19:35;8.90;99.90
28677;DHT22;15858;48.338;11.078;2022-10-31T04:22:02;8.90;99.90
28677;DHT22;15858;48.338;11.078;2022-10-31T04:24:29;8.80;99.90
28677;DHT22;15858;48.338;11.078;2022-10-31T04:26:55;8.80;99.90
28677;DHT22;15858;48.338;11.078;2022-10-31T04:29:22;8.80;99.90
28677;DHT22;15858;48.338;11.078;2022-10-31T04:31:49;8.80;99.90
28677;DHT22;15858;48.338;11.078;2022-10-31T04:34:15;8.80;99.90
28677;DHT22;15858;48.338;11.078;2022-10-31T04:36:42;8.80;99.90
28677;DHT22;15858;48.338;11.078;2022-10-31T04:39:09;8.70;99.90
28677;DHT22;15858;48.338;11.078;2022-10-31T04:41:35;8.80;99.90
28677;DHT22;15858;48.338;11.078;2022-10-31T04:44:02;8.80;99.90
28677;DHT22;15858;48.338;11.078;2022-10-31T04:46:28;8.80;99.90
28677;DHT22;15858;48.338;11.078;2022-10-31T04:48:55;8.80;99.90
28677;DHT22;15858;48.338;11.078;2022-10-31T04:51:22;8.80;99.90
28677;DHT22;15858;48.338;11.078;2022-10-31T04:53:49;8.80;99.90
28677;DHT22;15858;48.338;11.078;2022-10-31T04:56:15;8.80;99.90
28677;DHT22;15858;48.338;11.078;2022-10-31T04:58:42;8.70;99.90
28677;DHT22;15858;48.338;11.078;2022-10-31T05:01:08;8.70;99.90
28677;DHT22;15858;48.338;11.078;2022-10-31T05:03:35;8.70;99.90
28677;DHT22;15858;48.338;11.078;2022-10-31T05:06:02;8.70;99.90
28677;DHT22;15858;48.338;11.078;2022-10-31T05:08:28;8.70;99.90
28677;DHT22;15858;48.338;11.078;2022-10-31T05:10:59;8.70;99.90
28677;DHT22;15858;48.338;11.078;2022-10-31T05:13:30;8.60;99.90
28677;DHT22;15858;48.338;11.078;2022-10-31T05:15:57;8.70;99.90
28677;DHT22;15858;48.338;11.078;2022-10-31T05:18:24;8.60;99.90
28677;DHT22;15858;48.338;11.078;2022-10-31T05:20:50;8.60;99.90
28677;DHT22;15858;48.338;11.078;2022-10-31T05:23:17;8.60;99.90
28677;DHT22;15858;48.338;11.078;2022-10-31T05:25:43;8.60;99.90
28677;DHT22;15858;48.338;11.078;2022-10-31T05:28:10;8.50;99.90
28677;DHT22;15858;48.338;11.078;2022-10-31T05:30:37;8.50;99.90
28677;DHT22;15858;48.338;11.078;2022-10-31T05:33:03;8.50;99.90
28677;DHT22;15858;48.338;11.078;2022-10-31T05:35:31;8.40;99.90
28677;DHT22;15858;48.338;11.078;2022-10-31T05:37:59;8.50;99.90
28677;DHT22;15858;48.338;11.078;2022-10-31T05:40:27;8.50;99.90
28677;DHT22;15858;48.338;11.078;2022-10-31T05:42:55;8.50;99.90
28677;DHT22;15858;48.338;11.078;2022-10-31T05:45:22;8.60;99.90
28677;DHT22;15858;48.338;11.078;2022-10-31T05:47:53;8.60;99.90
28677;DHT22;15858;48.338;11.078;2022-10-31T05:50:21;8.60;99.90
28677;DHT22;15858;48.338;11.078;2022-10-31T05:52:57;8.50;99.90
28677;DHT22;15858;48.338;11.078;2022-10-31T05:55:24;8.50;99.90
28677;DHT22;15858;48.338;11.078;2022-10-31T05:57:52;8.50;99.90
28677;DHT22;15858;48.338;11.078;2022-10-31T06:00:19;8.50;99.90
28677;DHT22;15858;48.338;11.078;2022-10-31T06:02:46;8.50;99.90
28677;DHT22;15858;48.338;11.078;2022-10-31T06:05:14;8.40;99.90
28677;DHT22;15858;48.338;11.078;2022-10-31T06:07:41;8.40;99.90
28677;DHT22;15858;48.338;11.078;2022-10-31T06:10:08;8.40;99.90
28677;DHT22;15858;48.338;11.078;2022-10-31T06:12:36;8.30;99.90
28677;DHT22;15858;48.338;11.078;2022-10-31T06:15:04;8.40;99.90
28677;DHT22;15858;48.338;11.078;2022-10-31T06:17:31;8.40;99.90
28677;DHT22;15858;48.338;11.078;2022-10-31T06:19:58;8.40;99.90
28677;DHT22;15858;48.338;11.078;2022-10-31T06:22:24;8.40;99.90
28677;DHT22;15858;48.338;11.078;2022-10-31T06:24:51;8.40;99.90
28677;DHT22;15858;48.338;11.078;2022-10-31T06:27:18;8.40;99.90
28677;DHT22;15858;48.338;11.078;2022-10-31T06:29:44;8.50;99.90
28677;DHT22;15858;48.338;11.078;2022-10-31T06:32:12;8.50;99.90
28677;DHT22;15858;48.338;11.078;2022-10-31T06:34:39;8.50;99.90
28677;DHT22;15858;48.338;11.078;2022-10-31T06:37:10;8.50;99.90
28677;DHT22;15858;48.338;11.078;2022-10-31T06:39:37;8.60;99.90
28677;DHT22;15858;48.338;11.078;2022-10-31T06:42:04;8.70;99.90
28677;DHT22;15858;48.338;11.078;2022-10-31T06:44:31;8.70;99.90
28677;DHT22;15858;48.338;11.078;2022-10-31T06:46:57;8.70;99.90
28677;DHT22;15858;48.338;11.078;2022-10-31T06:49:24;8.70;99.90
28677;DHT22;15858;48.338;11.078;2022-10-31T06:51:51;8.70;99.90
28677;DHT22;15858;48.338;11.078;2022-10-31T06:54:18;8.80;99.90
28677;DHT22;15858;48.338;11.078;2022-10-31T06:56:48;8.80;99.90
28677;DHT22;15858;48.338;11.078;2022-10-31T06:59:15;8.90;99.90
28677;DHT22;15858;48.338;11.078;2022-10-31T07:01:41;9.00;99.90
28677;DHT22;15858;48.338;11.078;2022-10-31T07:04:11;9.10;99.90
28677;DHT22;15858;48.338;11.078;2022-10-31T07:06:38;9.20;99.90
28677;DHT22;15858;48.338;11.078;2022-10-31T07:09:05;9.30;99.90
28677;DHT22;15858;48.338;11.078;2022-10-31T07:11:32;9.40;99.90
28677;DHT22;15858;48.338;11.078;2022-10-31T07:13:58;9.50;99.90
28677;DHT22;15858;48.338;11.078;2022-10-31T07:16:25;9.60;99.90
28677;DHT22;15858;48.338;11.078;2022-10-31T07:18:51;9.60;99.90
28677;DHT22;15858;48.338;11.078;2022-10-31T07:21:18;9.60;99.90
28677;DHT22;15858;48.338;11.078;2022-10-31T07:23:47;9.80;99.90
28677;DHT22;15858;48.338;11.078;2022-10-31T07:26:14;9.80;99.90
28677;DHT22;15858;48.338;11.078;2022-10-31T07:28:41;9.90;99.90
28677;DHT22;15858;48.338;11.078;2022-10-31T07:31:08;10.00;99.90
28677;DHT22;15858;48.338;11.078;2022-10-31T07:33:34;10.20;99.90
28677;DHT22;15858;48.338;11.078;2022-10-31T07:36:01;10.30;99.90
28677;DHT22;15858;48.338;11.078;2022-10-31T07:38:27;10.30;99.90
28677;DHT22;15858;48.338;11.078;2022-10-31T07:40:54;10.40;99.90
28677;DHT22;15858;48.338;11.078;2022-10-31T07:43:21;10.50;99.90
28677;DHT22;15858;48.338;11.078;2022-10-31T07:45:53;10.60;99.90
28677;DHT22;15858;48.338;11.078;2022-10-31T07:48:20;10.70;99.90
28677;DHT22;15858;48.338;11.078;2022-10-31T07:50:47;10.80;99.90
28677;DHT22;15858;48.338;11.078;2022-10-31T07:53:14;11.00;99.90
28677;DHT22;15858;48.338;11.078;2022-10-31T07:55:42;11.10;99.90
28677;DHT22;15858;48.338;11.078;2022-10-31T07:58:14;11.20;99.90
28677;DHT22;15858;48.338;11.078;2022-10-31T08:00:42;11.40;99.90
28677;DHT22;15858;48.338;11.078;2022-10-31T08:03:12;11.50;99.90
28677;DHT22;15858;48.338;11.078;2022-10-31T08:05:39;11.70;99.90
28677;DHT22;15858;48.338;11.078;2022-10-31T08:08:07;11.80;99.90
28677;DHT22;15858;48.338;11.078;2022-10-31T08:10:34;11.90;99.90
28677;DHT22;15858;48.338;11.078;2022-10-31T08:13:06;12.00;99.90
28677;DHT22;15858;48.338;11.078;2022-10-31T08:15:34;12.10;99.90
28677;DHT22;15858;48.338;11.078;2022-10-31T08:18:01;12.10;99.90
28677;DHT22;15858;48.338;11.078;2022-10-31T08:20:28;12.20;99.90
28677;DHT22;15858;48.338;11.078;2022-10-31T08:22:59;12.20;99.90
28677;DHT22;15858;48.338;11.078;2022-10-31T08:25:27;12.30;99.90
28677;DHT22;15858;48.338;11.078;2022-10-31T08:27:59;12.30;99.90
28677;DHT22;15858;48.338;11.078;2022-10-31T08:30:29;12.40;99.90
28677;DHT22;15858;48.338;11.078;2022-10-31T08:35:25;12.60;99.90
28677;DHT22;15858;48.338;11.078;2022-10-31T08:37:56;12.70;99.90
28677;DHT22;15858;48.338;11.078;2022-10-31T08:40:23;12.80;99.90
28677;DHT22;15858;48.338;11.078;2022-10-31T08:43:04;12.80;99.90
28677;DHT22;15858;48.338;11.078;2022-10-31T08:45:32;12.90;99.90
28677;DHT22;15858;48.338;11.078;2022-10-31T08:48:00;13.00;99.90
28677;DHT22;15858;48.338;11.078;2022-10-31T08:50:28;13.00;99.90
28677;DHT22;15858;48.338;11.078;2022-10-31T08:53:04;13.00;99.90
28677;DHT22;15858;48.338;11.078;2022-10-31T08:55:35;13.00;99.90
28677;DHT22;15858;48.338;11.078;2022-10-31T08:58:04;13.10;99.90
28677;DHT22;15858;48.338;11.078;2022-10-31T09:00:32;13.20;99.90
28677;DHT22;15858;48.338;11.078;2022-10-31T09:03:04;13.10;99.90
28677;DHT22;15858;48.338;11.078;2022-10-31T09:05:32;13.10;99.90
28677;DHT22;15858;48.338;11.078;2022-10-31T09:08:00;13.20;99.90
28677;DHT22;15858;48.338;11.078;2022-10-31T09:10:28;13.30;99.90
28677;DHT22;15858;48.338;11.078;2022-10-31T09:13:00;13.30;99.90
28677;DHT22;15858;48.338;11.078;2022-10-31T09:15:27;13.50;99.90
28677;DHT22;15858;48.338;11.078;2022-10-31T09:17:54;13.60;99.90
28677;DHT22;15858;48.338;11.078;2022-10-31T09:20:21;13.70;99.90
28677;DHT22;15858;48.338;11.078;2022-10-31T09:22:47;13.80;99.90
28677;DHT22;15858;48.338;11.078;2022-10-31T09:25:14;13.90;99.90
28677;DHT22;15858;48.338;11.078;2022-10-31T09:27:41;14.10;99.90
28677;DHT22;15858;48.338;11.078;2022-10-31T09:30:08;14.30;99.90
28677;DHT22;15858;48.338;11.078;2022-10-31T09:32:35;14.30;99.90
28677;DHT22;15858;48.338;11.078;2022-10-31T09:35:01;14.30;99.90
28677;DHT22;15858;48.338;11.078;2022-10-31T09:37:28;14.40;99.90
28677;DHT22;15858;48.338;11.078;2022-10-31T09:39:55;14.60;99.90
28677;DHT22;15858;48.338;11.078;2022-10-31T09:45:21;14.60;99.90
28677;DHT22;15858;48.338;11.078;2022-10-31T09:50:53;14.60;99.90
28677;DHT22;15858;48.338;11.078;2022-10-31T09:53:43;14.80;99.90
28677;DHT22;15858;48.338;11.078;2022-10-31T09:56:15;15.00;99.90
28677;DHT22;15858;48.338;11.078;2022-10-31T09:58:46;15.00;99.90
28677;DHT22;15858;48.338;11.078;2022-10-31T10:01:29;15.00;99.90
28677;DHT22;15858;48.338;11.078;2022-10-31T10:04:05;15.10;99.90
28677;DHT22;15858;48.338;11.078;2022-10-31T10:06:45;15.10;99.90
28677;DHT22;15858;48.338;11.078;2022-10-31T10:09:12;15.10;99.90
28677;DHT22;15858;48.338;11.078;2022-10-31T10:12:13;15.10;99.90
28677;DHT22;15858;48.338;11.078;2022-10-31T10:15:08;15.20;99.90
28677;DHT22;15858;48.338;11.078;2022-10-31T10:18:07;15.30;99.90
28677;DHT22;15858;48.338;11.078;2022-10-31T10:26:37;15.40;99.90
28677;DHT22;15858;48.338;11.078;2022-10-31T10:31:55;15.60;99.90
28677;DHT22;15858;48.338;11.078;2022-10-31T10:34:33;15.70;99.90
28677;DHT22;15858;48.338;11.078;2022-10-31T10:37:12;15.60;99.90
28677;DHT22;15858;48.338;11.078;2022-10-31T10:39:44;15.70;99.90
28677;DHT22;15858;48.338;11.078;2022-10-31T10:42:14;15.70;99.90
28677;DHT22;15858;48.338;11.078;2022-10-31T10:44:45;15.80;99.90
28677;DHT22;15858;48.338;11.078;2022-10-31T10:47:12;15.80;99.90
28677;DHT22;15858;48.338;11.078;2022-10-31T10:49:49;15.70;99.90
28677;DHT22;15858;48.338;11.078;2022-10-31T10:52:38;15.70;99.90
28677;DHT22;15858;48.338;11.078;2022-10-31T11:00:51;15.80;99.90
28677;DHT22;15858;48.338;11.078;2022-10-31T11:03:17;15.80;99.90
28677;DHT22;15858;48.338;11.078;2022-10-31T11:08:34;16.00;99.90
28677;DHT22;15858;48.338;11.078;2022-10-31T11:11:07;16.00;99.90
28677;DHT22;15858;48.338;11.078;2022-10-31T11:13:36;16.10;99.90
28677;DHT22;15858;48.338;11.078;2022-10-31T11:16:07;16.20;99.90
28677;DHT22;15858;48.338;11.078;2022-10-31T11:18:37;16.30;99.90
28677;DHT22;15858;48.338;11.078;2022-10-31T11:21:05;16.40;99.90
28677;DHT22;15858;48.338;11.078;2022-10-31T11:23:32;16.40;99.90
28677;DHT22;15858;48.338;11.078;2022-10-31T11:26:04;16.50;99.90
28677;DHT22;15858;48.338;11.078;2022-10-31T11:28:32;16.60;99.90
28677;DHT22;15858;48.338;11.078;2022-10-31T11:31:05;16.80;99.90
28677;DHT22;15858;48.338;11.078;2022-10-31T11:33:37;16.90;99.90
28677;DHT22;15858;48.338;11.078;2022-10-31T11:36:24;17.00;99.90
28677;DHT22;15858;48.338;11.078;2022-10-31T11:38:52;17.00;99.90
28677;DHT22;15858;48.338;11.078;2022-10-31T11:41:25;17.00;99.90
28677;DHT22;15858;48.338;11.078;2022-10-31T11:44:02;17.00;99.90
28677;DHT22;15858;48.338;11.078;2022-10-31T11:46:45;17.20;99.90
28677;DHT22;15858;48.338;11.078;2022-10-31T11:49:27;17.20;99.90
28677;DHT22;15858;48.338;11.078;2022-10-31T11:51:57;17.20;99.90
28677;DHT22;15858;48.338;11.078;2022-10-31T11:54:32;17.10;99.90
28677;DHT22;15858;48.338;11.078;2022-10-31T11:56:59;17.10;99.90
28677;DHT22;15858;48.338;11.078;2022-10-31T11:59:29;17.00;99.90
28677;DHT22;15858;48.338;11.078;2022-10-31T12:01:58;17.00;99.90
28677;DHT22;15858;48.338;11.078;2022-10-31T12:04:34;16.90;99.90
28677;DHT22;15858;48.338;11.078;2022-10-31T12:07:01;16.80;99.90
28677;DHT22;15858;48.338;11.078;2022-10-31T12:09:30;16.70;99.90
28677;DHT22;15858;48.338;11.078;2022-10-31T12:17:50;16.60;99.90
28677;DHT22;15858;48.338;11.078;2022-10-31T12:23:25;17.00;99.90
28677;DHT22;15858;48.338;11.078;2022-10-31T12:29:07;17.40;99.90
28677;DHT22;15858;48.338;11.078;2022-10-31T12:43:39;18.00;99.90
28677;DHT22;15858;48.338;11.078;2022-10-31T12:46:18;18.00;99.90
28677;DHT22;15858;48.338;11.078;2022-10-31T12:52:33;18.10;99.90
28677;DHT22;15858;48.338;11.078;2022-10-31T12:57:36;18.00;99.90
28677;DHT22;15858;48.338;11.078;2022-10-31T13:00:04;18.00;99.90
28677;DHT22;15858;48.338;11.078;2022-10-31T13:05:42;17.70;99.90
28677;DHT22;15858;48.338;11.078;2022-10-31T13:08:24;17.70;99.90
28677;DHT22;15858;48.338;11.078;2022-10-31T13:11:00;17.40;99.90
28677;DHT22;15858;48.338;11.078;2022-10-31T13:13:47;17.40;99.90
28677;DHT22;15858;48.338;11.078;2022-10-31T13:16:18;17.30;99.90
28677;DHT22;15858;48.338;11.078;2022-10-31T13:19:22;17.20;99.90
28677;DHT22;15858;48.338;11.078;2022-10-31T13:22:09;17.10;99.90
28677;DHT22;15858;48.338;11.078;2022-10-31T13:24:41;17.00;99.90
28677;DHT22;15858;48.338;11.078;2022-10-31T13:27:20;16.90;99.90
28677;DHT22;15858;48.338;11.078;2022-10-31T13:35:26;16.80;99.90
28677;DHT22;15858;48.338;11.078;2022-10-31T13:40:44;16.70;99.90
28677;DHT22;15858;48.338;11.078;2022-10-31T13:43:22;16.70;99.90
28677;DHT22;15858;48.338;11.078;2022-10-31T13:45:52;16.60;99.90
28677;DHT22;15858;48.338;11.078;2022-10-31T13:48:39;16.70;99.90
28677;DHT22;15858;48.338;11.078;2022-10-31T13:51:08;16.80;99.90
28677;DHT22;15858;48.338;11.078;2022-10-31T13:53:42;16.80;99.90
28677;DHT22;15858;48.338;11.078;2022-10-31T13:58:36;16.80;99.90
28677;DHT22;15858;48.338;11.078;2022-10-31T14:01:17;16.70;99.90
28677;DHT22;15858;48.338;11.078;2022-10-31T14:04:04;16.70;99.90
28677;DHT22;15858;48.338;11.078;2022-10-31T14:09:28;16.70;99.90
28677;DHT22;15858;48.338;11.078;2022-10-31T14:11:59;16.50;99.90
28677;DHT22;15858;48.338;11.078;2022-10-31T14:14:34;16.50;99.90
28677;DHT22;15858;48.338;11.078;2022-10-31T14:17:02;16.40;99.90
28677;DHT22;15858;48.338;11.078;2022-10-31T14:19:29;16.30;99.90
28677;DHT22;15858;48.338;11.078;2022-10-31T14:21:55;16.30;99.90
28677;DHT22;15858;48.338;11.078;2022-10-31T14:26:57;16.10;99.90
28677;DHT22;15858;48.338;11.078;2022-10-31T14:29:29;16.00;99.90
28677;DHT22;15858;48.338;11.078;2022-10-31T14:32:06;15.90;99.90
28677;DHT22;15858;48.338;11.078;2022-10-31T14:40:22;15.90;99.90
28677;DHT22;15858;48.338;11.078;2022-10-31T14:51:22;15.80;99.90
28677;DHT22;15858;48.338;11.078;2022-10-31T14:53:54;15.70;99.90
28677;DHT22;15858;48.338;11.078;2022-10-31T14:56:29;15.60;99.90
28677;DHT22;15858;48.338;11.078;2022-10-31T14:59:00;15.50;99.90
28677;DHT22;15858;48.338;11.078;2022-10-31T15:01:30;15.50;99.90
28677;DHT22;15858;48.338;11.078;2022-10-31T15:04:20;15.50;99.90
28677;DHT22;15858;48.338;11.078;2022-10-31T15:10:02;15.40;99.90
28677;DHT22;15858;48.338;11.078;2022-10-31T15:12:35;15.40;99.90
28677;DHT22;15858;48.338;11.078;2022-10-31T15:15:21;15.40;99.90
28677;DHT22;15858;48.338;11.078;2022-10-31T15:17:52;15.30;99.90
28677;DHT22;15858;48.338;11.078;2022-10-31T15:20:25;15.50;99.90
28677;DHT22;15858;48.338;11.078;2022-10-31T15:22:55;15.40;99.90
28677;DHT22;15858;48.338;11.078;2022-10-31T15:25:25;15.30;99.90
28677;DHT22;15858;48.338;11.078;2022-10-31T15:27:53;15.20;99.90
28677;DHT22;15858;48.338;11.078;2022-10-31T15:30:22;15.10;99.90
28677;DHT22;15858;48.338;11.078;2022-10-31T15:32:50;15.10;99.90
28677;DHT22;15858;48.338;11.078;2022-10-31T15:35:29;15.10;99.90
28677;DHT22;15858;48.338;11.078;2022-10-31T15:37:57;15.00;99.90
28677;DHT22;15858;48.338;11.078;2022-10-31T15:40:26;15.00;99.90
28677;DHT22;15858;48.338;11.078;2022-10-31T15:42:58;15.00;99.90
28677;DHT22;15858;48.338;11.078;2022-10-31T15:45:27;15.00;99.90
28677;DHT22;15858;48.338;11.078;2022-10-31T15:47:58;15.00;99.90
28677;DHT22;15858;48.338;11.078;2022-10-31T15:50:39;14.90;99.90
28677;DHT22;15858;48.338;11.078;2022-10-31T15:53:16;14.80;99.90
28677;DHT22;15858;48.338;11.078;2022-10-31T15:56:02;14.70;99.90
28677;DHT22;15858;48.338;11.078;2022-10-31T15:58:33;14.60;99.90
28677;DHT22;15858;48.338;11.078;2022-10-31T16:01:02;14.60;99.90
28677;DHT22;15858;48.338;11.078;2022-10-31T16:03:31;14.50;99.90
28677;DHT22;15858;48.338;11.078;2022-10-31T16:06:00;14.40;99.90
28677;DHT22;15858;48.338;11.078;2022-10-31T16:11:00;14.20;99.90
28677;DHT22;15858;48.338;11.078;2022-10-31T16:13:32;14.10;99.90
28677;DHT22;15858;48.338;11.078;2022-10-31T16:16:01;14.00;99.90
28677;DHT22;15858;48.338;11.078;2022-10-31T16:18:49;14.00;99.90
28677;DHT22;15858;48.338;11.078;2022-10-31T16:21:24;13.90;99.90
28677;DHT22;15858;48.338;11.078;2022-10-31T16:23:57;13.80;99.90
28677;DHT22;15858;48.338;11.078;2022-10-31T16:26:30;13.80;99.90
28677;DHT22;15858;48.338;11.078;2022-10-31T16:28:58;13.70;99.90
28677;DHT22;15858;48.338;11.078;2022-10-31T16:31:37;13.60;99.90
28677;DHT22;15858;48.338;11.078;2022-10-31T16:34:21;13.60;99.90
28677;DHT22;15858;48.338;11.078;2022-10-31T16:36:52;13.50;99.90
28677;DHT22;15858;48.338;11.078;2022-10-31T16:39:19;13.30;99.90
28677;DHT22;15858;48.338;11.078;2022-10-31T16:41:50;13.30;99.90
28677;DHT22;15858;48.338;11.078;2022-10-31T16:44:19;13.20;99.90
28677;DHT22;15858;48.338;11.078;2022-10-31T16:46:46;13.20;99.90
28677;DHT22;15858;48.338;11.078;2022-10-31T16:49:12;13.10;99.90
28677;DHT22;15858;48.338;11.078;2022-10-31T16:51:39;13.10;99.90
28677;DHT22;15858;48.338;11.078;2022-10-31T16:54:06;13.10;99.90
28677;DHT22;15858;48.338;11.078;2022-10-31T16:56:34;13.10;99.90
28677;DHT22;15858;48.338;11.078;2022-10-31T16:59:04;13.10;99.90
28677;DHT22;15858;48.338;11.078;2022-10-31T17:01:32;13.10;99.90
28677;DHT22;15858;48.338;11.078;2022-10-31T17:04:00;13.10;99.90
28677;DHT22;15858;48.338;11.078;2022-10-31T17:06:26;13.00;99.90
28677;DHT22;15858;48.338;11.078;2022-10-31T17:08:53;13.00;99.90
28677;DHT22;15858;48.338;11.078;2022-10-31T17:11:22;13.00;99.90
28677;DHT22;15858;48.338;11.078;2022-10-31T17:13:50;13.00;99.90
28677;DHT22;15858;48.338;11.078;2022-10-31T17:16:17;13.00;99.90
28677;DHT22;15858;48.338;11.078;2022-10-31T17:18:43;13.00;99.90
28677;DHT22;15858;48.338;11.078;2022-10-31T17:21:18;13.00;99.90
28677;DHT22;15858;48.338;11.078;2022-10-31T17:23:46;12.90;99.90
28677;DHT22;15858;48.338;11.078;2022-10-31T17:26:13;12.80;99.90
28677;DHT22;15858;48.338;11.078;2022-10-31T17:28:39;12.70;99.90
28677;DHT22;15858;48.338;11.078;2022-10-31T17:31:19;12.80;99.90
28677;DHT22;15858;48.338;11.078;2022-10-31T17:33:46;12.70;99.90
28677;DHT22;15858;48.338;11.078;2022-10-31T17:36:12;12.60;99.90
28677;DHT22;15858;48.338;11.078;2022-10-31T17:38:39;12.60;99.90
28677;DHT22;15858;48.338;11.078;2022-10-31T17:41:06;12.60;99.90
28677;DHT22;15858;48.338;11.078;2022-10-31T17:43:37;12.60;99.90